sensor_id;sensor_type;location;lat;lon;timestamp;pressure;altitude;pressure_sealevel;temperature;humidity
68301;BME280;55146;47.468;18.806;2022-08-19T00:01:45;99419.97;;;26.93;46.81
68301;BME280;55146;47.468;18.806;2022-08-19T00:04:13;99426.00;;;26.91;46.85
68301;BME280;55146;47.468;18.806;2022-08-19T00:06:40;99428.44;;;26.93;46.81
68301;BME280;55146;47.468;18.806;2022-08-19T00:09:09;99421.19;;;26.92;47.14
68301;BME280;55146;47.468;18.806;2022-08-19T00:11:35;99407.41;;;26.76;47.46
68301;BME280;55146;47.468;18.806;2022-08-19T00:14:04;99407.41;;;26.80;47.15
68301;BME280;55146;47.468;18.806;2022-08-19T00:16:29;99417.97;;;26.97;46.39
68301;BME280;55146;47.468;18.806;2022-08-19T00:18:55;99417.53;;;26.91;46.85
68301;BME280;55146;47.468;18.806;2022-08-19T00:21:21;99423.56;;;26.86;46.71
68301;BME280;55146;47.468;18.806;2022-08-19T00:23:46;99409.50;;;26.97;46.45
68301;BME280;55146;47.468;18.806;2022-08-19T00:26:12;99408.25;;;26.87;46.90
68301;BME280;55146;47.468;18.806;2022-08-19T00:28:37;99409.41;;;26.69;47.62
68301;BME280;55146;47.468;18.806;2022-08-19T00:31:05;99405.00;;;26.78;47.13
68301;BME280;55146;47.468;18.806;2022-08-19T00:33:31;99407.06;;;26.88;46.63
68301;BME280;55146;47.468;18.806;2022-08-19T00:36:00;99415.47;;;26.74;47.63
68301;BME280;55146;47.468;18.806;2022-08-19T00:38:26;99406.63;;;26.83;46.73
68301;BME280;55146;47.468;18.806;2022-08-19T00:40:51;99411.06;;;26.84;47.21
68301;BME280;55146;47.468;18.806;2022-08-19T00:43:22;99402.50;;;26.48;48.29
68301;BME280;55146;47.468;18.806;2022-08-19T00:45:48;99404.09;;;26.49;48.34
68301;BME280;55146;47.468;18.806;2022-08-19T00:48:15;99403.72;;;26.54;48.00
68301;BME280;55146;47.468;18.806;2022-08-19T00:50:41;99403.75;;;26.58;47.81
68301;BME280;55146;47.468;18.806;2022-08-19T00:53:12;99408.56;;;26.50;47.97
68301;BME280;55146;47.468;18.806;2022-08-19T00:55:40;99416.97;;;26.36;48.52
68301;BME280;55146;47.468;18.806;2022-08-19T00:58:10;99416.22;;;26.50;48.18
68301;BME280;55146;47.468;18.806;2022-08-19T01:00:37;99412.97;;;26.44;48.23
68301;BME280;55146;47.468;18.806;2022-08-19T01:03:05;99398.84;;;26.48;48.03
68301;BME280;55146;47.468;18.806;2022-08-19T01:05:31;99398.06;;;26.40;48.51
68301;BME280;55146;47.468;18.806;2022-08-19T01:07:59;99387.94;;;26.29;48.90
68301;BME280;55146;47.468;18.806;2022-08-19T01:10:29;99390.66;;;26.14;49.84
68301;BME280;55146;47.468;18.806;2022-08-19T01:12:55;99396.38;;;26.25;48.68
68301;BME280;55146;47.468;18.806;2022-08-19T01:15:24;99388.34;;;26.34;48.32
68301;BME280;55146;47.468;18.806;2022-08-19T01:17:51;99398.03;;;26.33;48.80
68301;BME280;55146;47.468;18.806;2022-08-19T01:20:20;99397.63;;;26.35;48.43
68301;BME280;55146;47.468;18.806;2022-08-19T01:22:49;99394.81;;;26.35;48.29
68301;BME280;55146;47.468;18.806;2022-08-19T01:25:16;99394.41;;;26.43;48.11
68301;BME280;55146;47.468;18.806;2022-08-19T01:27:45;99389.56;;;26.37;48.04
68301;BME280;55146;47.468;18.806;2022-08-19T01:30:16;99392.34;;;26.30;48.43
68301;BME280;55146;47.468;18.806;2022-08-19T01:32:42;99387.56;;;26.41;47.90
68301;BME280;55146;47.468;18.806;2022-08-19T01:35:10;99380.28;;;26.33;48.17
68301;BME280;55146;47.468;18.806;2022-08-19T01:38:03;99365.38;;;26.29;48.43
68301;BME280;55146;47.468;18.806;2022-08-19T01:40:33;99361.78;;;26.39;48.00
68301;BME280;55146;47.468;18.806;2022-08-19T01:43:00;99360.59;;;26.47;47.80
68301;BME280;55146;47.468;18.806;2022-08-19T01:45:27;99354.91;;;26.36;47.98
68301;BME280;55146;47.468;18.806;2022-08-19T01:47:53;99359.72;;;26.36;48.05
68301;BME280;55146;47.468;18.806;2022-08-19T01:50:20;99358.13;;;26.31;48.56
68301;BME280;55146;47.468;18.806;2022-08-19T01:52:47;99347.97;;;26.23;48.68
68301;BME280;55146;47.468;18.806;2022-08-19T01:55:15;99331.84;;;26.13;48.96
68301;BME280;55146;47.468;18.806;2022-08-19T01:57:45;99327.78;;;26.07;49.02
68301;BME280;55146;47.468;18.806;2022-08-19T02:00:15;99331.41;;;26.04;49.31
68301;BME280;55146;47.468;18.806;2022-08-19T02:02:41;99336.66;;;26.09;49.09
68301;BME280;55146;47.468;18.806;2022-08-19T02:05:07;99341.84;;;26.00;49.12
68301;BME280;55146;47.468;18.806;2022-08-19T02:07:34;99347.88;;;25.95;49.50
68301;BME280;55146;47.468;18.806;2022-08-19T02:10:09;99342.28;;;25.98;49.23
68301;BME280;55146;47.468;18.806;2022-08-19T02:12:35;99333.44;;;26.03;49.14
68301;BME280;55146;47.468;18.806;2022-08-19T02:15:02;99333.38;;;26.00;49.23
68301;BME280;55146;47.468;18.806;2022-08-19T02:17:29;99331.41;;;26.07;48.82
68301;BME280;55146;47.468;18.806;2022-08-19T02:19:55;99332.25;;;26.15;48.49
68301;BME280;55146;47.468;18.806;2022-08-19T02:22:22;99320.13;;;26.04;48.90
68301;BME280;55146;47.468;18.806;2022-08-19T02:24:47;99315.22;;;25.87;49.79
68301;BME280;55146;47.468;18.806;2022-08-19T02:27:13;99322.03;;;25.82;50.03
68301;BME280;55146;47.468;18.806;2022-08-19T02:29:39;99326.91;;;25.85;49.70
68301;BME280;55146;47.468;18.806;2022-08-19T02:32:04;99320.47;;;25.88;49.95
68301;BME280;55146;47.468;18.806;2022-08-19T02:34:30;99326.91;;;25.85;49.58
68301;BME280;55146;47.468;18.806;2022-08-19T02:36:55;99322.47;;;25.84;49.57
68301;BME280;55146;47.468;18.806;2022-08-19T02:39:20;99329.72;;;25.89;49.46
68301;BME280;55146;47.468;18.806;2022-08-19T02:41:45;99333.28;;;25.71;50.34
68301;BME280;55146;47.468;18.806;2022-08-19T02:44:11;99342.19;;;25.84;49.57
68301;BME280;55146;47.468;18.806;2022-08-19T02:46:37;99342.97;;;25.77;49.44
68301;BME280;55146;47.468;18.806;2022-08-19T02:49:04;99346.97;;;25.80;49.58
68301;BME280;55146;47.468;18.806;2022-08-19T02:51:37;99349.03;;;25.80;49.43
68301;BME280;55146;47.468;18.806;2022-08-19T02:54:06;99360.25;;;25.76;49.64
68301;BME280;55146;47.468;18.806;2022-08-19T02:56:35;99357.44;;;25.72;50.26
68301;BME280;55146;47.468;18.806;2022-08-19T02:59:01;99353.81;;;25.72;49.93
68301;BME280;55146;47.468;18.806;2022-08-19T03:01:31;99348.94;;;25.69;50.25
68301;BME280;55146;47.468;18.806;2022-08-19T03:04:00;99357.88;;;25.78;49.44
68301;BME280;55146;47.468;18.806;2022-08-19T03:06:27;99359.88;;;25.77;49.96
68301;BME280;55146;47.468;18.806;2022-08-19T03:08:52;99364.69;;;25.73;49.90
68301;BME280;55146;47.468;18.806;2022-08-19T03:11:22;99368.66;;;25.65;50.00
68301;BME280;55146;47.468;18.806;2022-08-19T03:13:48;99369.47;;;25.66;50.93
68301;BME280;55146;47.468;18.806;2022-08-19T03:16:18;99375.34;;;25.50;50.94
68301;BME280;55146;47.468;18.806;2022-08-19T03:18:44;99369.75;;;25.54;50.92
68301;BME280;55146;47.468;18.806;2022-08-19T03:21:09;99380.56;;;25.45;51.26
68301;BME280;55146;47.468;18.806;2022-08-19T03:23:39;99391.87;;;25.48;51.10
68301;BME280;55146;47.468;18.806;2022-08-19T03:26:05;99380.56;;;25.45;51.02
68301;BME280;55146;47.468;18.806;2022-08-19T03:28:31;99392.22;;;25.43;51.50
68301;BME280;55146;47.468;18.806;2022-08-19T03:31:03;99384.50;;;25.33;52.14
68301;BME280;55146;47.468;18.806;2022-08-19T03:33:30;99383.25;;;25.27;52.33
68301;BME280;55146;47.468;18.806;2022-08-19T03:36:17;99374.34;;;25.21;52.70
68301;BME280;55146;47.468;18.806;2022-08-19T03:38:48;99391.53;;;25.06;52.82
68301;BME280;55146;47.468;18.806;2022-08-19T03:41:17;99390.75;;;25.12;52.92
68301;BME280;55146;47.468;18.806;2022-08-19T03:43:43;99399.69;;;25.21;51.75
68301;BME280;55146;47.468;18.806;2022-08-19T03:46:13;99398.44;;;25.19;51.93
68301;BME280;55146;47.468;18.806;2022-08-19T03:48:40;99414.53;;;25.18;52.08
68301;BME280;55146;47.468;18.806;2022-08-19T03:51:07;99406.13;;;25.22;52.28
68301;BME280;55146;47.468;18.806;2022-08-19T03:53:34;99408.91;;;25.18;52.37
68301;BME280;55146;47.468;18.806;2022-08-19T03:56:00;99406.97;;;25.26;51.95
68301;BME280;55146;47.468;18.806;2022-08-19T03:58:26;99413.03;;;25.28;51.87
68301;BME280;55146;47.468;18.806;2022-08-19T04:00:54;99410.97;;;25.25;52.25
68301;BME280;55146;47.468;18.806;2022-08-19T04:03:19;99410.16;;;25.24;52.46
68301;BME280;55146;47.468;18.806;2022-08-19T04:05:45;99416.59;;;25.21;52.16
68301;BME280;55146;47.468;18.806;2022-08-19T04:08:11;99422.19;;;25.18;51.67
68301;BME280;55146;47.468;18.806;2022-08-19T04:10:38;99424.88;;;25.04;52.50
68301;BME280;55146;47.468;18.806;2022-08-19T04:13:04;99419.25;;;25.04;53.01
68301;BME280;55146;47.468;18.806;2022-08-19T04:15:31;99421.69;;;25.05;53.54
68301;BME280;55146;47.468;18.806;2022-08-19T04:18:01;99418.44;;;25.07;53.63
68301;BME280;55146;47.468;18.806;2022-08-19T04:20:27;99420.38;;;24.95;53.86
68301;BME280;55146;47.468;18.806;2022-08-19T04:22:52;99419.16;;;24.96;54.28
68301;BME280;55146;47.468;18.806;2022-08-19T04:25:17;99421.19;;;24.96;54.32
68301;BME280;55146;47.468;18.806;2022-08-19T04:27:43;99426.00;;;24.95;53.81
68301;BME280;55146;47.468;18.806;2022-08-19T04:30:13;99420.06;;;25.04;53.54
68301;BME280;55146;47.468;18.806;2022-08-19T04:32:39;99419.78;;;25.20;52.53
68301;BME280;55146;47.468;18.806;2022-08-19T04:35:04;99414.06;;;25.09;53.37
68301;BME280;55146;47.468;18.806;2022-08-19T04:37:30;99414.72;;;24.92;53.01
68301;BME280;55146;47.468;18.806;2022-08-19T04:39:59;99418.50;;;25.10;53.42
68301;BME280;55146;47.468;18.806;2022-08-19T04:42:43;99422.16;;;25.14;52.99
68301;BME280;55146;47.468;18.806;2022-08-19T04:45:12;99421.37;;;25.17;53.15
68301;BME280;55146;47.468;18.806;2022-08-19T04:47:39;99412.72;;;24.96;54.02
68301;BME280;55146;47.468;18.806;2022-08-19T04:50:06;99417.69;;;25.10;53.35
68301;BME280;55146;47.468;18.806;2022-08-19T04:52:33;99424.44;;;25.02;53.66
68301;BME280;55146;47.468;18.806;2022-08-19T04:54:58;99432.06;;;25.01;53.58
68301;BME280;55146;47.468;18.806;2022-08-19T04:57:24;99434.12;;;25.04;53.54
68301;BME280;55146;47.468;18.806;2022-08-19T04:59:54;99434.53;;;25.06;53.84
68301;BME280;55146;47.468;18.806;2022-08-19T05:02:20;99434.12;;;25.04;54.41
68301;BME280;55146;47.468;18.806;2022-08-19T05:04:45;99431.78;;;25.10;53.77
68301;BME280;55146;47.468;18.806;2022-08-19T05:07:10;99435.47;;;25.17;54.13
68301;BME280;55146;47.468;18.806;2022-08-19T05:09:36;99433.38;;;25.11;54.19
68301;BME280;55146;47.468;18.806;2022-08-19T05:12:02;99427.84;;;25.21;53.49
68301;BME280;55146;47.468;18.806;2022-08-19T05:14:27;99419.53;;;25.39;52.23
68301;BME280;55146;47.468;18.806;2022-08-19T05:16:54;99422.41;;;25.43;53.10
68301;BME280;55146;47.468;18.806;2022-08-19T05:19:19;99430.84;;;25.43;52.67
68301;BME280;55146;47.468;18.806;2022-08-19T05:22:03;99426.88;;;25.51;53.02
68301;BME280;55146;47.468;18.806;2022-08-19T05:24:47;99434.97;;;25.56;52.96
68301;BME280;55146;47.468;18.806;2022-08-19T05:27:12;99431.84;;;25.61;52.92
68301;BME280;55146;47.468;18.806;2022-08-19T05:29:38;99433.84;;;25.64;52.74
68301;BME280;55146;47.468;18.806;2022-08-19T05:32:04;99432.59;;;25.58;52.73
68301;BME280;55146;47.468;18.806;2022-08-19T05:34:34;99439.91;;;25.66;52.44
68301;BME280;55146;47.468;18.806;2022-08-19T05:37:02;99425.28;;;25.53;52.54
68301;BME280;55146;47.468;18.806;2022-08-19T05:39:30;99433.84;;;25.60;52.77
68301;BME280;55146;47.468;18.806;2022-08-19T05:42:02;99426.75;;;25.84;51.42
68301;BME280;55146;47.468;18.806;2022-08-19T05:44:30;99435.16;;;25.81;51.54
68301;BME280;55146;47.468;18.806;2022-08-19T05:47:00;99435.25;;;25.91;51.48
68301;BME280;55146;47.468;18.806;2022-08-19T05:49:27;99427.63;;;25.99;51.88
68301;BME280;55146;47.468;18.806;2022-08-19T05:51:53;99426.03;;;26.05;51.18
68301;BME280;55146;47.468;18.806;2022-08-19T05:54:20;99427.63;;;25.99;51.91
68301;BME280;55146;47.468;18.806;2022-08-19T05:56:48;99425.69;;;26.13;50.97
68301;BME280;55146;47.468;18.806;2022-08-19T05:59:15;99427.78;;;26.24;50.31
68301;BME280;55146;47.468;18.806;2022-08-19T06:01:44;99422.53;;;26.22;50.81
68301;BME280;55146;47.468;18.806;2022-08-19T06:04:11;99418.16;;;26.32;50.23
68301;BME280;55146;47.468;18.806;2022-08-19T06:06:36;99424.19;;;26.30;51.04
68301;BME280;55146;47.468;18.806;2022-08-19T06:09:04;99416.19;;;26.43;49.76
68301;BME280;55146;47.468;18.806;2022-08-19T06:11:45;99417.03;;;26.61;49.33
68301;BME280;55146;47.468;18.806;2022-08-19T06:14:14;99426.31;;;26.62;49.62
68301;BME280;55146;47.468;18.806;2022-08-19T06:16:41;99414.69;;;26.81;49.20
68301;BME280;55146;47.468;18.806;2022-08-19T06:19:12;99417.16;;;26.93;48.63
68301;BME280;55146;47.468;18.806;2022-08-19T06:21:39;99413.94;;;27.12;47.75
68301;BME280;55146;47.468;18.806;2022-08-19T06:24:08;99415.16;;;27.18;48.82
68301;BME280;55146;47.468;18.806;2022-08-19T06:26:36;99403.06;;;27.28;48.84
68301;BME280;55146;47.468;18.806;2022-08-19T06:29:03;99403.06;;;27.50;47.19
68301;BME280;55146;47.468;18.806;2022-08-19T06:31:31;99401.47;;;27.63;47.58
68301;BME280;55146;47.468;18.806;2022-08-19T06:33:59;99397.78;;;27.87;46.17
68301;BME280;55146;47.468;18.806;2022-08-19T06:36:40;99396.53;;;27.99;46.38
68301;BME280;55146;47.468;18.806;2022-08-19T06:39:11;99400.06;;;28.31;46.59
68301;BME280;55146;47.468;18.806;2022-08-19T06:41:39;99402.38;;;28.54;45.60
68301;BME280;55146;47.468;18.806;2022-08-19T06:44:06;99399.13;;;28.63;46.38
68301;BME280;55146;47.468;18.806;2022-08-19T06:46:31;99404.28;;;28.82;43.43
68301;BME280;55146;47.468;18.806;2022-08-19T06:48:57;99421.97;;;29.00;44.31
68301;BME280;55146;47.468;18.806;2022-08-19T06:51:23;99427.19;;;29.02;42.92
68301;BME280;55146;47.468;18.806;2022-08-19T06:53:50;99440.94;;;29.03;43.72
68301;BME280;55146;47.468;18.806;2022-08-19T06:56:26;99445.37;;;29.11;42.03
68301;BME280;55146;47.468;18.806;2022-08-19T06:58:59;99444.81;;;29.30;42.52
68301;BME280;55146;47.468;18.806;2022-08-19T07:01:25;99448.00;;;29.43;44.16
68301;BME280;55146;47.468;18.806;2022-08-19T07:03:50;99452.34;;;29.55;41.53
68301;BME280;55146;47.468;18.806;2022-08-19T07:06:17;99458.25;;;29.74;41.47
68301;BME280;55146;47.468;18.806;2022-08-19T07:08:44;99467.87;;;29.84;40.81
68301;BME280;55146;47.468;18.806;2022-08-19T07:11:12;99461.56;;;30.07;40.56
68301;BME280;55146;47.468;18.806;2022-08-19T07:13:38;99461.22;;;30.05;39.76
68301;BME280;55146;47.468;18.806;2022-08-19T07:16:08;99458.47;;;29.94;39.92
68301;BME280;55146;47.468;18.806;2022-08-19T07:18:35;99456.97;;;30.24;41.29
68301;BME280;55146;47.468;18.806;2022-08-19T07:21:05;99449.44;;;30.40;40.40
68301;BME280;55146;47.468;18.806;2022-08-19T07:23:31;99453.56;;;30.70;42.06
68301;BME280;55146;47.468;18.806;2022-08-19T07:25:57;99448.81;;;30.90;39.24
68301;BME280;55146;47.468;18.806;2022-08-19T07:28:22;99454.50;;;30.90;38.39
68301;BME280;55146;47.468;18.806;2022-08-19T07:30:48;99465.88;;;30.90;38.33
68301;BME280;55146;47.468;18.806;2022-08-19T07:33:14;99456.75;;;31.02;38.64
68301;BME280;55146;47.468;18.806;2022-08-19T07:35:40;99449.72;;;31.41;39.22
68301;BME280;55146;47.468;18.806;2022-08-19T07:38:05;99455.25;;;31.74;37.21
68301;BME280;55146;47.468;18.806;2022-08-19T07:40:31;99445.44;;;31.52;36.45
68301;BME280;55146;47.468;18.806;2022-08-19T07:42:56;99444.63;;;31.79;36.67
68301;BME280;55146;47.468;18.806;2022-08-19T07:45:21;99441.38;;;32.00;36.21
68301;BME280;55146;47.468;18.806;2022-08-19T07:47:47;99434.88;;;31.99;37.08
68301;BME280;55146;47.468;18.806;2022-08-19T07:50:12;99446.50;;;32.08;36.87
68301;BME280;55146;47.468;18.806;2022-08-19T07:52:38;99457.59;;;32.03;36.08
68301;BME280;55146;47.468;18.806;2022-08-19T07:55:09;99460.16;;;32.17;36.87
68301;BME280;55146;47.468;18.806;2022-08-19T07:57:35;99462.00;;;32.04;34.98
68301;BME280;55146;47.468;18.806;2022-08-19T08:00:00;99458.44;;;32.00;35.62
68301;BME280;55146;47.468;18.806;2022-08-19T08:02:26;99462.66;;;32.15;36.39
68301;BME280;55146;47.468;18.806;2022-08-19T08:04:51;99465.34;;;32.22;35.45
68301;BME280;55146;47.468;18.806;2022-08-19T08:07:35;99466.31;;;32.16;36.00
68301;BME280;55146;47.468;18.806;2022-08-19T08:10:19;99467.09;;;32.16;36.43
68301;BME280;55146;47.468;18.806;2022-08-19T08:12:45;99460.72;;;32.51;35.36
68301;BME280;55146;47.468;18.806;2022-08-19T08:15:13;99468.69;;;32.40;38.28
68301;BME280;55146;47.468;18.806;2022-08-19T08:17:43;99467.34;;;32.65;35.70
68301;BME280;55146;47.468;18.806;2022-08-19T08:20:09;99471.53;;;32.80;34.88
68301;BME280;55146;47.468;18.806;2022-08-19T08:22:35;99471.34;;;33.07;34.51
68301;BME280;55146;47.468;18.806;2022-08-19T08:25:22;99468.31;;;33.14;34.32
68301;BME280;55146;47.468;18.806;2022-08-19T08:27:48;99463.84;;;33.33;34.92
68301;BME280;55146;47.468;18.806;2022-08-19T08:30:20;99454.75;;;33.38;34.51
68301;BME280;55146;47.468;18.806;2022-08-19T08:32:46;99448.50;;;33.59;33.65
68301;BME280;55146;47.468;18.806;2022-08-19T08:35:14;99426.84;;;33.78;33.51
68301;BME280;55146;47.468;18.806;2022-08-19T08:37:40;99427.75;;;33.75;32.54
68301;BME280;55146;47.468;18.806;2022-08-19T08:40:18;99434.66;;;33.90;34.52
68301;BME280;55146;47.468;18.806;2022-08-19T08:43:03;99435.09;;;34.04;33.52
68301;BME280;55146;47.468;18.806;2022-08-19T08:45:30;99431.06;;;34.02;31.93
68301;BME280;55146;47.468;18.806;2022-08-19T08:48:03;99431.22;;;34.11;34.49
68301;BME280;55146;47.468;18.806;2022-08-19T08:50:36;99441.12;;;34.23;31.79
68301;BME280;55146;47.468;18.806;2022-08-19T08:53:06;99428.19;;;34.47;31.09
68301;BME280;55146;47.468;18.806;2022-08-19T08:55:34;99438.09;;;34.71;32.63
68301;BME280;55146;47.468;18.806;2022-08-19T08:58:19;99450.47;;;34.94;30.46
68301;BME280;55146;47.468;18.806;2022-08-19T09:00:47;99432.84;;;34.82;29.50
68301;BME280;55146;47.468;18.806;2022-08-19T09:03:20;99431.25;;;35.07;30.25
68301;BME280;55146;47.468;18.806;2022-08-19T09:10:57;99421.97;;;35.66;29.86
68301;BME280;55146;47.468;18.806;2022-08-19T09:16:14;99403.19;;;35.78;28.60
68301;BME280;55146;47.468;18.806;2022-08-19T09:18:43;99402.97;;;35.72;28.49
68301;BME280;55146;47.468;18.806;2022-08-19T09:21:11;99402.19;;;35.72;28.11
68301;BME280;55146;47.468;18.806;2022-08-19T09:23:36;99397.31;;;35.81;28.82
68301;BME280;55146;47.468;18.806;2022-08-19T09:26:07;99400.88;;;35.85;27.95
68301;BME280;55146;47.468;18.806;2022-08-19T09:28:34;99401.34;;;36.05;29.57
68301;BME280;55146;47.468;18.806;2022-08-19T09:30:59;99392.25;;;35.98;29.61
68301;BME280;55146;47.468;18.806;2022-08-19T09:33:25;99396.78;;;36.08;27.76
68301;BME280;55146;47.468;18.806;2022-08-19T09:36:01;99398.69;;;35.89;26.79
68301;BME280;55146;47.468;18.806;2022-08-19T09:38:28;99396.12;;;36.26;27.70
68301;BME280;55146;47.468;18.806;2022-08-19T09:40:53;99403.16;;;36.12;28.71
68301;BME280;55146;47.468;18.806;2022-08-19T09:43:19;99395.59;;;36.40;28.83
68301;BME280;55146;47.468;18.806;2022-08-19T09:45:44;99396.78;;;36.30;28.65
68301;BME280;55146;47.468;18.806;2022-08-19T09:48:09;99384.75;;;36.35;27.00
68301;BME280;55146;47.468;18.806;2022-08-19T09:50:35;99377.81;;;36.23;27.34
68301;BME280;55146;47.468;18.806;2022-08-19T09:53:03;99378.75;;;36.20;26.41
68301;BME280;55146;47.468;18.806;2022-08-19T09:55:31;99381.16;;;36.22;29.05
68301;BME280;55146;47.468;18.806;2022-08-19T09:57:56;99373.97;;;36.48;27.07
68301;BME280;55146;47.468;18.806;2022-08-19T10:00:21;99385.84;;;36.59;26.44
68301;BME280;55146;47.468;18.806;2022-08-19T10:02:47;99376.75;;;36.61;26.60
68301;BME280;55146;47.468;18.806;2022-08-19T10:05:12;99375.13;;;36.72;26.70
68301;BME280;55146;47.468;18.806;2022-08-19T10:07:56;99374.19;;;36.75;25.86
68301;BME280;55146;47.468;18.806;2022-08-19T10:10:21;99378.47;;;36.71;28.16
68301;BME280;55146;47.468;18.806;2022-08-19T10:12:47;99380.47;;;36.92;27.03
68301;BME280;55146;47.468;18.806;2022-08-19T10:15:13;99378.09;;;37.00;27.78
68301;BME280;55146;47.468;18.806;2022-08-19T10:17:39;99383.00;;;37.30;28.34
68301;BME280;55146;47.468;18.806;2022-08-19T10:20:04;99377.22;;;37.12;26.73
68301;BME280;55146;47.468;18.806;2022-08-19T10:22:30;99379.34;;;37.30;25.72
68301;BME280;55146;47.468;18.806;2022-08-19T10:24:55;99367.87;;;37.30;26.90
68301;BME280;55146;47.468;18.806;2022-08-19T10:27:21;99370.78;;;37.39;26.10
68301;BME280;55146;47.468;18.806;2022-08-19T10:29:47;99376.63;;;37.26;25.52
68301;BME280;55146;47.468;18.806;2022-08-19T10:32:13;99375.53;;;37.42;25.73
68301;BME280;55146;47.468;18.806;2022-08-19T10:34:39;99374.75;;;37.41;26.33
68301;BME280;55146;47.468;18.806;2022-08-19T10:37:05;99376.81;;;37.32;26.25
68301;BME280;55146;47.468;18.806;2022-08-19T10:39:35;99373.34;;;37.46;26.29
68301;BME280;55146;47.468;18.806;2022-08-19T10:42:05;99368.06;;;37.44;26.04
68301;BME280;55146;47.468;18.806;2022-08-19T10:44:32;99378.41;;;37.42;26.02
68301;BME280;55146;47.468;18.806;2022-08-19T10:46:58;99366.16;;;37.50;25.55
68301;BME280;55146;47.468;18.806;2022-08-19T10:49:24;99371.69;;;37.26;28.48
68301;BME280;55146;47.468;18.806;2022-08-19T10:51:49;99369.34;;;37.34;25.31
68301;BME280;55146;47.468;18.806;2022-08-19T10:54:33;99362.03;;;37.51;25.05
68301;BME280;55146;47.468;18.806;2022-08-19T10:57:17;99362.28;;;37.26;25.20
68301;BME280;55146;47.468;18.806;2022-08-19T10:59:42;99366.09;;;37.23;24.89
68301;BME280;55146;47.468;18.806;2022-08-19T11:02:09;99363.81;;;37.58;24.31
68301;BME280;55146;47.468;18.806;2022-08-19T11:04:36;99365.78;;;37.30;25.36
68301;BME280;55146;47.468;18.806;2022-08-19T11:07:03;99365.69;;;37.52;24.26
68301;BME280;55146;47.468;18.806;2022-08-19T11:09:29;99375.41;;;37.45;25.09
68301;BME280;55146;47.468;18.806;2022-08-19T11:11:55;99370.47;;;37.46;25.07
68301;BME280;55146;47.468;18.806;2022-08-19T11:14:22;99373.34;;;37.55;25.26
68301;BME280;55146;47.468;18.806;2022-08-19T11:16:49;99379.16;;;37.82;24.69
68301;BME280;55146;47.468;18.806;2022-08-19T11:19:16;99376.44;;;37.70;23.33
68301;BME280;55146;47.468;18.806;2022-08-19T11:21:46;99380.41;;;37.63;23.60
68301;BME280;55146;47.468;18.806;2022-08-19T11:24:15;99385.13;;;37.48;23.68
68301;BME280;55146;47.468;18.806;2022-08-19T11:26:42;99369.56;;;37.58;23.17
68301;BME280;55146;47.468;18.806;2022-08-19T11:29:10;99371.47;;;37.61;24.07
68301;BME280;55146;47.468;18.806;2022-08-19T11:31:37;99368.19;;;37.32;23.92
68301;BME280;55146;47.468;18.806;2022-08-19T11:34:06;99359.78;;;37.55;24.55
68301;BME280;55146;47.468;18.806;2022-08-19T11:36:32;99367.16;;;37.65;23.47
68301;BME280;55146;47.468;18.806;2022-08-19T11:38:58;99373.88;;;37.72;23.68
68301;BME280;55146;47.468;18.806;2022-08-19T11:41:24;99368.28;;;37.68;24.12
68301;BME280;55146;47.468;18.806;2022-08-19T11:43:51;99360.81;;;37.89;23.47
68301;BME280;55146;47.468;18.806;2022-08-19T11:46:21;99362.56;;;37.95;23.76
68301;BME280;55146;47.468;18.806;2022-08-19T11:48:48;99356.91;;;37.55;24.19
68301;BME280;55146;47.468;18.806;2022-08-19T11:51:21;99346.69;;;37.36;24.96
68301;BME280;55146;47.468;18.806;2022-08-19T11:53:47;99354.28;;;37.12;25.16
68301;BME280;55146;47.468;18.806;2022-08-19T11:56:14;99346.47;;;36.72;25.10
68301;BME280;55146;47.468;18.806;2022-08-19T11:58:39;99346.91;;;36.49;25.36
68301;BME280;55146;47.468;18.806;2022-08-19T12:01:10;99353.34;;;36.31;25.75
68301;BME280;55146;47.468;18.806;2022-08-19T12:03:37;99357.09;;;36.19;26.44
68301;BME280;55146;47.468;18.806;2022-08-19T12:06:05;99357.16;;;36.28;26.93
68301;BME280;55146;47.468;18.806;2022-08-19T12:08:30;99349.91;;;36.67;26.16
68301;BME280;55146;47.468;18.806;2022-08-19T12:10:56;99352.19;;;36.72;26.56
68301;BME280;55146;47.468;18.806;2022-08-19T12:13:21;99357.03;;;36.63;24.88
68301;BME280;55146;47.468;18.806;2022-08-19T12:15:47;99359.53;;;36.30;25.55
68301;BME280;55146;47.468;18.806;2022-08-19T12:18:13;99363.16;;;36.21;25.51
68301;BME280;55146;47.468;18.806;2022-08-19T12:20:40;99360.91;;;36.16;25.77
68301;BME280;55146;47.468;18.806;2022-08-19T12:23:09;99365.47;;;36.14;25.48
68301;BME280;55146;47.468;18.806;2022-08-19T12:25:36;99356.28;;;35.97;25.93
68301;BME280;55146;47.468;18.806;2022-08-19T12:28:02;99354.91;;;35.89;25.83
68301;BME280;55146;47.468;18.806;2022-08-19T12:30:28;99350.00;;;35.89;26.00
68301;BME280;55146;47.468;18.806;2022-08-19T12:32:54;99342.19;;;36.12;25.42
68301;BME280;55146;47.468;18.806;2022-08-19T12:35:19;99331.22;;;36.10;26.19
68301;BME280;55146;47.468;18.806;2022-08-19T12:37:46;99323.97;;;36.18;25.77
68301;BME280;55146;47.468;18.806;2022-08-19T12:40:12;99328.19;;;36.57;25.49
68301;BME280;55146;47.468;18.806;2022-08-19T12:42:39;99330.81;;;36.64;27.49
68301;BME280;55146;47.468;18.806;2022-08-19T12:45:08;99325.50;;;36.94;27.43
68301;BME280;55146;47.468;18.806;2022-08-19T12:47:34;99314.44;;;37.14;27.86
68301;BME280;55146;47.468;18.806;2022-08-19T12:50:00;99321.91;;;37.11;25.52
68301;BME280;55146;47.468;18.806;2022-08-19T12:52:26;99311.50;;;37.05;24.30
68301;BME280;55146;47.468;18.806;2022-08-19T12:54:53;99324.47;;;37.18;25.55
68301;BME280;55146;47.468;18.806;2022-08-19T12:57:19;99315.91;;;36.78;24.30
68301;BME280;55146;47.468;18.806;2022-08-19T12:59:45;99321.09;;;36.40;25.02
68301;BME280;55146;47.468;18.806;2022-08-19T13:02:10;99316.22;;;36.06;24.75